createdAt,value
2023-05-17T00:00:43.345Z,99.90
2023-05-17T00:03:11.999Z,99.90
2023-05-17T00:05:42.107Z,99.90
2023-05-17T00:08:10.661Z,99.90
2023-05-17T00:10:39.296Z,99.90
2023-05-17T00:13:07.992Z,99.90
2023-05-17T00:15:36.510Z,99.90
2023-05-17T00:18:05.349Z,99.90
2023-05-17T00:20:34.858Z,99.90
2023-05-17T00:23:04.926Z,99.90
2023-05-17T00:25:33.547Z,99.90
2023-05-17T00:28:02.522Z,99.90
2023-05-17T00:30:31.150Z,99.90
2023-05-17T00:32:59.761Z,99.90
2023-05-17T00:35:28.660Z,99.90
2023-05-17T00:37:57.374Z,99.90
2023-05-17T00:40:27.397Z,99.90
2023-05-17T00:42:55.944Z,99.90
2023-05-17T00:45:24.597Z,99.90
2023-05-17T00:47:53.244Z,99.90
2023-05-17T00:50:21.994Z,99.90
2023-05-17T00:52:50.751Z,99.90
2023-05-17T00:55:20.003Z,99.90
2023-05-17T00:57:51.335Z,99.90
2023-05-17T01:00:20.420Z,99.90
2023-05-17T01:02:49.543Z,99.90
2023-05-17T01:05:18.402Z,99.90
2023-05-17T01:07:47.503Z,99.90
2023-05-17T01:10:16.161Z,99.90
2023-05-17T01:13:07.636Z,99.90
2023-05-17T01:15:40.785Z,99.90
2023-05-17T01:18:16.604Z,99.90
2023-05-17T01:20:46.736Z,99.90
2023-05-17T01:23:31.586Z,99.90
2023-05-17T01:26:08.247Z,99.90
2023-05-17T01:28:39.804Z,99.90
2023-05-17T01:31:10.437Z,99.90
2023-05-17T01:33:39.730Z,99.90
2023-05-17T01:36:09.344Z,99.90
2023-05-17T01:38:37.854Z,99.90
2023-05-17T01:41:09.712Z,99.90
2023-05-17T01:43:48.391Z,99.90
2023-05-17T01:46:23.646Z,99.90
2023-05-17T01:49:08.025Z,99.90
2023-05-17T01:51:50.528Z,99.90
2023-05-17T01:54:24.093Z,99.90
2023-05-17T01:56:58.954Z,99.90
2023-05-17T01:59:31.036Z,99.90
2023-05-17T02:02:06.371Z,99.90
2023-05-17T02:04:35.013Z,99.90
2023-05-17T02:07:04.113Z,99.90
2023-05-17T02:09:32.678Z,99.90
2023-05-17T02:12:01.601Z,99.90
2023-05-17T02:14:31.563Z,99.90
2023-05-17T02:17:00.247Z,99.90
2023-05-17T02:19:28.829Z,99.90
2023-05-17T02:21:57.425Z,99.90
2023-05-17T02:24:26.097Z,99.90
2023-05-17T02:26:54.686Z,99.90
2023-05-17T02:29:23.218Z,99.90
2023-05-17T02:31:53.188Z,99.90
2023-05-17T02:34:21.736Z,99.90
2023-05-17T02:36:50.425Z,99.90
2023-05-17T02:39:18.990Z,99.90
2023-05-17T02:41:47.858Z,99.90
2023-05-17T02:44:16.406Z,99.90
2023-05-17T02:46:45.382Z,99.90
2023-05-17T02:49:15.404Z,99.90
2023-05-17T02:51:44.216Z,99.90
2023-05-17T02:54:12.564Z,99.90
2023-05-17T02:56:41.322Z,99.90
2023-05-17T02:59:09.862Z,99.90
2023-05-17T03:01:38.417Z,99.90
2023-05-17T03:04:06.993Z,99.90
2023-05-17T03:06:37.041Z,99.90
2023-05-17T03:09:05.702Z,99.90
2023-05-17T03:11:34.516Z,99.90
2023-05-17T03:14:03.122Z,99.90
2023-05-17T03:16:31.715Z,99.90
2023-05-17T03:19:00.356Z,99.90
2023-05-17T03:21:29.045Z,99.90
2023-05-17T03:23:59.484Z,99.90
2023-05-17T03:26:28.055Z,99.90
2023-05-17T03:28:56.598Z,99.90
2023-05-17T03:31:25.257Z,99.90
2023-05-17T03:33:53.965Z,99.90
2023-05-17T03:36:22.569Z,99.90
2023-05-17T03:38:51.151Z,99.90
2023-05-17T03:41:21.961Z,99.90
2023-05-17T03:43:50.604Z,99.90
2023-05-17T03:46:19.152Z,99.90
2023-05-17T03:48:48.133Z,99.90
2023-05-17T03:51:17.277Z,99.90
2023-05-17T03:53:46.333Z,99.90
2023-05-17T03:56:16.163Z,99.90
2023-05-17T03:58:46.669Z,99.90
2023-05-17T04:01:15.312Z,99.90
2023-05-17T04:03:44.442Z,99.90
2023-05-17T04:06:14.944Z,99.90
2023-05-17T04:08:43.470Z,99.90
2023-05-17T04:11:14.165Z,99.90
2023-05-17T04:13:43.268Z,99.90
2023-05-17T04:16:13.311Z,99.90
2023-05-17T04:18:42.544Z,99.90
2023-05-17T04:21:11.112Z,99.90
2023-05-17T04:23:39.840Z,99.90
2023-05-17T04:26:08.402Z,99.90
2023-05-17T04:28:37.002Z,99.90
2023-05-17T04:31:09.448Z,99.90
2023-05-17T04:33:39.474Z,99.90
2023-05-17T04:36:08.628Z,99.90
2023-05-17T04:38:37.314Z,99.90
2023-05-17T04:41:06.795Z,99.90
2023-05-17T04:43:35.713Z,99.90
2023-05-17T04:46:05.683Z,99.90
2023-05-17T04:48:34.848Z,99.90
2023-05-17T04:51:05.450Z,99.90
2023-05-17T04:53:34.202Z,99.90
2023-05-17T04:56:04.335Z,99.90
2023-05-17T04:58:33.180Z,99.90
2023-05-17T05:01:03.638Z,99.90
2023-05-17T05:03:32.376Z,99.90
2023-05-17T05:06:01.078Z,99.90
2023-05-17T05:08:31.567Z,99.90
2023-05-17T05:11:00.163Z,99.90
2023-05-17T05:13:28.850Z,99.90
2023-05-17T05:15:57.441Z,99.90
2023-05-17T05:18:26.266Z,99.90
2023-05-17T05:20:54.895Z,99.90
2023-05-17T05:23:23.444Z,99.90
2023-05-17T05:25:53.495Z,99.90
2023-05-17T05:28:22.032Z,99.90
2023-05-17T05:30:50.894Z,99.90
2023-05-17T05:33:20.437Z,99.90
2023-05-17T05:35:49.465Z,99.90
2023-05-17T05:38:18.029Z,99.90
2023-05-17T05:40:49.229Z,99.90
2023-05-17T05:43:19.295Z,99.90
2023-05-17T05:45:48.029Z,99.90
2023-05-17T05:48:16.733Z,99.90
2023-05-17T05:50:46.671Z,99.90
2023-05-17T05:53:19.466Z,99.90
2023-05-17T05:55:49.620Z,99.90
2023-05-17T05:58:19.591Z,99.90
2023-05-17T06:00:48.647Z,99.90
2023-05-17T06:03:17.675Z,99.90
2023-05-17T06:05:46.566Z,99.90
2023-05-17T06:08:15.193Z,99.90
2023-05-17T06:10:44.054Z,99.90
2023-05-17T06:13:12.724Z,99.90
2023-05-17T06:15:42.853Z,99.90
2023-05-17T06:18:11.534Z,99.90
2023-05-17T06:20:40.113Z,99.90
2023-05-17T06:23:08.628Z,99.90
2023-05-17T06:25:37.204Z,99.90
2023-05-17T06:28:05.955Z,99.90
2023-05-17T06:30:34.524Z,99.90
2023-05-17T06:33:05.038Z,99.90
2023-05-17T06:35:43.732Z,99.90
2023-05-17T06:38:16.501Z,99.90
2023-05-17T06:40:45.530Z,99.90
2023-05-17T06:43:14.106Z,99.90
2023-05-17T06:45:42.739Z,99.90
2023-05-17T06:48:12.921Z,99.90
2023-05-17T06:50:41.613Z,99.90
2023-05-17T06:53:10.333Z,99.90
2023-05-17T06:55:39.027Z,99.90
2023-05-17T06:58:07.655Z,99.90
2023-05-17T07:00:36.558Z,99.90
2023-05-17T07:03:08.375Z,99.90
2023-05-17T07:05:38.905Z,99.90
2023-05-17T07:08:08.005Z,99.90
2023-05-17T07:10:36.712Z,99.90
2023-05-17T07:13:05.429Z,99.90
2023-05-17T07:15:38.659Z,99.90
2023-05-17T07:18:07.450Z,99.90
2023-05-17T07:20:37.535Z,99.90
2023-05-17T07:23:06.236Z,99.90
2023-05-17T07:25:39.001Z,99.90
2023-05-17T07:28:08.065Z,99.90
2023-05-17T07:30:36.747Z,99.90
2023-05-17T07:33:05.436Z,99.90
2023-05-17T07:35:34.003Z,99.90
2023-05-17T07:38:04.228Z,99.90
2023-05-17T07:40:32.920Z,99.90
2023-05-17T07:43:01.622Z,99.90
2023-05-17T07:45:30.693Z,99.90
2023-05-17T07:47:59.543Z,99.90
2023-05-17T07:50:28.459Z,99.90
2023-05-17T07:52:56.976Z,99.90
2023-05-17T07:55:27.222Z,99.90
2023-05-17T07:57:55.839Z,99.90
2023-05-17T08:00:28.420Z,99.90
2023-05-17T08:02:57.603Z,99.90
2023-05-17T08:05:26.396Z,99.90
2023-05-17T08:07:55.002Z,99.90
2023-05-17T08:10:24.885Z,99.90
2023-05-17T08:12:55.000Z,99.90
2023-05-17T08:15:23.859Z,99.90
2023-05-17T08:17:52.446Z,99.90
2023-05-17T08:20:21.409Z,99.90
2023-05-17T08:22:49.942Z,99.90
2023-05-17T08:25:18.396Z,99.90
2023-05-17T08:27:47.152Z,99.90
2023-05-17T08:30:31.514Z,99.90
2023-05-17T08:33:00.712Z,99.90
2023-05-17T08:35:29.617Z,99.90
2023-05-17T08:37:58.160Z,99.90
2023-05-17T08:40:26.746Z,99.90
2023-05-17T08:42:55.584Z,99.90
2023-05-17T08:45:28.221Z,99.90
2023-05-17T08:47:57.368Z,99.90
2023-05-17T08:50:27.514Z,99.90
2023-05-17T08:52:58.577Z,99.90
2023-05-17T08:55:29.830Z,99.90
2023-05-17T08:57:58.752Z,99.90
2023-05-17T09:00:29.166Z,92.70
2023-05-17T09:02:58.128Z,96.10
2023-05-17T09:05:27.188Z,99.90
2023-05-17T09:07:57.201Z,99.90
2023-05-17T09:10:25.785Z,99.90
2023-05-17T09:12:55.023Z,99.90
2023-05-17T09:15:27.189Z,99.90
2023-05-17T09:17:58.933Z,99.90
2023-05-17T09:20:43.461Z,99.90
2023-05-17T09:23:22.778Z,73.70
2023-05-17T09:26:05.019Z,61.70
2023-05-17T09:28:46.789Z,65.90
2023-05-17T09:31:28.470Z,95.70
2023-05-17T09:34:09.556Z,96.70
2023-05-17T09:36:47.656Z,99.90
2023-05-17T09:39:21.905Z,99.90
2023-05-17T09:44:55.349Z,99.90
2023-05-17T09:47:30.001Z,99.90
2023-05-17T09:50:07.487Z,99.90
2023-05-17T09:52:46.072Z,99.90
2023-05-17T09:55:20.826Z,99.90
2023-05-17T09:58:00.744Z,75.40
2023-05-17T10:00:38.445Z,80.40
2023-05-17T10:03:22.136Z,90.60
2023-05-17T10:05:58.550Z,92.00
2023-05-17T10:09:00.721Z,99.90
2023-05-17T10:11:36.900Z,99.90
2023-05-17T10:14:16.009Z,99.90
2023-05-17T10:16:49.582Z,99.90
2023-05-17T10:19:22.885Z,99.90
2023-05-17T10:22:21.844Z,92.30
2023-05-17T10:25:13.735Z,91.50
2023-05-17T10:27:50.269Z,65.80
2023-05-17T10:30:24.153Z,79.60
2023-05-17T10:32:55.670Z,68.90
2023-05-17T10:35:30.846Z,90.30
2023-05-17T10:38:01.879Z,88.00
2023-05-17T10:40:44.156Z,99.90
2023-05-17T10:43:20.996Z,97.60
2023-05-17T10:46:05.380Z,71.30
2023-05-17T10:48:39.483Z,74.10
2023-05-17T10:51:15.375Z,70.10
2023-05-17T10:54:13.394Z,65.90
2023-05-17T10:57:00.554Z,90.60
2023-05-17T10:59:32.200Z,87.10
2023-05-17T11:02:07.760Z,98.60
2023-05-17T11:04:41.313Z,84.90
2023-05-17T11:07:35.379Z,81.70
2023-05-17T11:10:07.747Z,71.60
2023-05-17T11:12:58.361Z,64.00
2023-05-17T11:15:29.823Z,76.70
2023-05-17T11:18:26.512Z,87.00
2023-05-17T11:21:18.198Z,84.80
2023-05-17T11:23:51.937Z,81.80
2023-05-17T11:26:38.094Z,78.60
2023-05-17T11:29:14.923Z,99.90
2023-05-17T11:31:46.882Z,78.00
2023-05-17T11:34:23.428Z,77.40
2023-05-17T11:36:59.707Z,79.70
2023-05-17T11:39:41.620Z,69.80
2023-05-17T11:42:33.013Z,99.90
2023-05-17T11:45:13.932Z,97.10
2023-05-17T11:47:43.914Z,74.60
2023-05-17T11:50:17.075Z,78.90
2023-05-17T11:52:55.897Z,67.10
2023-05-17T11:55:25.248Z,79.30
2023-05-17T11:58:01.172Z,84.40
2023-05-17T12:00:35.314Z,76.90
2023-05-17T12:03:24.614Z,88.90
2023-05-17T12:06:05.154Z,87.70
2023-05-17T12:08:39.502Z,86.70
2023-05-17T12:11:26.234Z,95.30
2023-05-17T12:14:03.094Z,92.50
2023-05-17T12:16:42.765Z,85.60
2023-05-17T12:19:23.533Z,94.10
2023-05-17T12:22:01.315Z,82.20
2023-05-17T12:24:42.470Z,63.20
2023-05-17T12:27:16.553Z,67.00
2023-05-17T12:29:49.134Z,50.00
2023-05-17T12:32:30.931Z,54.10
2023-05-17T12:35:03.480Z,56.10
2023-05-17T12:37:38.869Z,52.30
2023-05-17T12:40:14.318Z,53.60
2023-05-17T12:42:47.497Z,58.80
2023-05-17T12:45:20.989Z,60.70
2023-05-17T12:47:59.536Z,60.90
2023-05-17T12:50:31.997Z,65.10
2023-05-17T12:53:12.548Z,66.20
2023-05-17T12:55:52.330Z,54.90
2023-05-17T12:58:37.517Z,58.60
2023-05-17T13:01:15.935Z,61.80
2023-05-17T13:04:00.774Z,59.60
2023-05-17T13:06:31.869Z,58.80
2023-05-17T13:09:05.661Z,71.70
2023-05-17T13:11:43.364Z,66.60
2023-05-17T13:14:16.415Z,69.20
2023-05-17T13:16:51.226Z,67.30
2023-05-17T13:19:33.523Z,69.90
2023-05-17T13:22:17.876Z,65.80
2023-05-17T13:24:49.328Z,75.40
2023-05-17T13:27:26.100Z,72.50
2023-05-17T13:29:58.217Z,55.90
2023-05-17T13:32:37.875Z,58.00
2023-05-17T13:35:23.362Z,63.50
2023-05-17T13:37:59.784Z,71.20
2023-05-17T13:40:33.786Z,81.00
2023-05-17T13:43:11.155Z,75.30
2023-05-17T13:45:55.136Z,70.20
2023-05-17T13:48:41.075Z,89.50
2023-05-17T13:51:36.943Z,69.20
2023-05-17T13:54:16.589Z,69.10
2023-05-17T13:56:49.921Z,63.90
2023-05-17T13:59:21.884Z,61.80
2023-05-17T14:02:00.878Z,64.70
2023-05-17T14:04:32.472Z,70.20
2023-05-17T14:07:04.586Z,77.30
2023-05-17T14:09:39.556Z,72.70
2023-05-17T14:12:21.104Z,72.00
2023-05-17T14:15:00.894Z,72.60
2023-05-17T14:17:36.561Z,72.40
2023-05-17T14:20:06.670Z,78.30
2023-05-17T14:22:46.587Z,83.10
2023-05-17T14:25:24.435Z,78.70
2023-05-17T14:28:05.692Z,77.90
2023-05-17T14:30:39.569Z,91.60
2023-05-17T14:33:10.818Z,85.50
2023-05-17T14:35:45.685Z,92.10
2023-05-17T14:38:31.751Z,93.90
2023-05-17T14:41:02.704Z,90.00
2023-05-17T14:43:34.315Z,98.70
2023-05-17T14:46:12.305Z,99.90
2023-05-17T14:48:45.773Z,96.10
2023-05-17T14:51:20.899Z,95.90
2023-05-17T14:53:59.894Z,98.90
2023-05-17T14:56:35.405Z,99.90
2023-05-17T14:59:22.442Z,99.90
2023-05-17T15:01:53.548Z,99.90
2023-05-17T15:04:32.804Z,99.90
2023-05-17T15:07:03.271Z,99.90
2023-05-17T15:09:42.846Z,99.90
2023-05-17T15:12:21.400Z,99.90
2023-05-17T15:15:04.379Z,99.90
2023-05-17T15:17:42.267Z,99.90
2023-05-17T15:20:35.683Z,99.90
2023-05-17T15:23:13.166Z,99.90
2023-05-17T15:25:54.205Z,99.90
2023-05-17T15:28:25.909Z,99.80
2023-05-17T15:31:09.346Z,99.90
2023-05-17T15:33:47.582Z,99.90
2023-05-17T15:36:35.243Z,99.90
2023-05-17T15:39:07.662Z,99.90
2023-05-17T15:41:55.085Z,99.90
2023-05-17T15:44:25.205Z,99.90
2023-05-17T15:46:57.143Z,99.90
2023-05-17T15:49:35.760Z,99.90
2023-05-17T15:52:09.324Z,99.90
2023-05-17T15:54:40.435Z,99.90
2023-05-17T15:57:20.297Z,99.90
2023-05-17T15:59:49.230Z,99.90
2023-05-17T16:02:27.149Z,99.90
2023-05-17T16:05:01.260Z,99.90
2023-05-17T16:07:36.041Z,99.90
2023-05-17T16:10:08.391Z,99.90
2023-05-17T16:12:44.951Z,99.90
2023-05-17T16:15:25.340Z,99.90
2023-05-17T16:17:56.174Z,99.90
2023-05-17T16:20:25.905Z,99.90
2023-05-17T16:22:57.024Z,99.90
2023-05-17T16:25:38.790Z,99.90
2023-05-17T16:28:11.204Z,99.90
2023-05-17T16:30:50.899Z,99.90
2023-05-17T16:33:37.758Z,99.90
2023-05-17T16:36:08.482Z,99.90
2023-05-17T16:38:51.770Z,99.90
2023-05-17T16:41:22.593Z,99.90
2023-05-17T16:44:10.313Z,99.90
2023-05-17T16:46:43.295Z,99.90
2023-05-17T16:52:12.624Z,99.90
2023-05-17T16:54:50.060Z,99.90
2023-05-17T16:57:35.722Z,99.90
2023-05-17T17:00:23.525Z,99.90
2023-05-17T17:03:07.484Z,99.90
2023-05-17T17:05:47.575Z,99.90
2023-05-17T17:08:17.857Z,99.90
2023-05-17T17:10:50.012Z,99.90
2023-05-17T17:13:21.315Z,99.90
2023-05-17T17:15:55.202Z,99.90
2023-05-17T17:18:27.475Z,99.90
2023-05-17T17:20:59.570Z,99.90
2023-05-17T17:23:37.309Z,99.90
2023-05-17T17:26:16.844Z,99.90
2023-05-17T17:28:55.820Z,99.90
2023-05-17T17:31:28.121Z,99.90
2023-05-17T17:34:01.488Z,99.90
2023-05-17T17:36:42.150Z,99.90
2023-05-17T17:39:21.879Z,99.90
2023-05-17T17:42:02.337Z,99.90
2023-05-17T17:44:37.452Z,99.90
2023-05-17T17:47:20.419Z,99.90
2023-05-17T17:49:53.499Z,99.90
2023-05-17T17:52:27.234Z,99.90
2023-05-17T17:55:00.091Z,99.90
2023-05-17T17:57:32.195Z,99.90
2023-05-17T18:00:04.902Z,99.90
2023-05-17T18:03:02.488Z,99.90
2023-05-17T18:05:39.272Z,99.90
2023-05-17T18:08:18.836Z,99.90
2023-05-17T18:10:57.455Z,99.90
2023-05-17T18:13:28.140Z,99.90
2023-05-17T18:15:59.605Z,99.90
2023-05-17T18:18:34.622Z,99.90
2023-05-17T18:21:14.641Z,99.90
2023-05-17T18:23:51.356Z,99.90
2023-05-17T18:26:24.450Z,99.90
2023-05-17T18:29:05.438Z,99.90
2023-05-17T18:31:37.142Z,99.90
2023-05-17T18:34:47.692Z,99.90
2023-05-17T18:37:26.866Z,99.90
2023-05-17T18:39:57.282Z,99.90
2023-05-17T18:42:32.747Z,99.90
2023-05-17T18:45:14.697Z,99.90
2023-05-17T18:47:46.723Z,99.90
2023-05-17T18:50:32.240Z,99.90
2023-05-17T18:53:08.000Z,99.90
2023-05-17T18:55:56.072Z,99.90
2023-05-17T18:58:27.642Z,99.90
2023-05-17T19:01:03.396Z,99.90
2023-05-17T19:03:33.961Z,99.90
2023-05-17T19:06:21.489Z,99.90
2023-05-17T19:09:00.146Z,99.90
2023-05-17T19:11:31.355Z,99.90
2023-05-17T19:14:02.784Z,99.90
2023-05-17T19:16:36.868Z,99.90
2023-05-17T19:19:12.829Z,99.90
2023-05-17T19:21:55.071Z,99.90
2023-05-17T19:24:24.552Z,99.90
2023-05-17T19:26:55.752Z,99.90
2023-05-17T19:29:33.892Z,99.90
2023-05-17T19:32:20.448Z,99.90
2023-05-17T19:34:53.784Z,99.90
2023-05-17T19:37:42.944Z,99.90
2023-05-17T19:40:22.057Z,99.90
2023-05-17T19:42:55.511Z,99.90
2023-05-17T19:45:28.095Z,99.90
2023-05-17T19:48:00.573Z,99.90
2023-05-17T19:50:30.820Z,99.90
2023-05-17T19:53:06.213Z,99.90
2023-05-17T19:55:40.776Z,99.90
2023-05-17T19:58:13.624Z,99.90
2023-05-17T20:00:47.747Z,99.90
2023-05-17T20:03:29.013Z,99.90
2023-05-17T20:06:03.655Z,99.90
2023-05-17T20:08:37.183Z,99.90
2023-05-17T20:11:11.443Z,99.90
2023-05-17T20:13:45.842Z,99.90
2023-05-17T20:16:23.757Z,99.90
2023-05-17T20:19:04.344Z,99.90
2023-05-17T20:21:45.547Z,99.90
2023-05-17T20:24:28.445Z,99.90
2023-05-17T20:27:02.700Z,99.90
2023-05-17T20:29:33.383Z,99.90
2023-05-17T20:32:08.673Z,99.90
2023-05-17T20:34:41.469Z,99.90
2023-05-17T20:37:23.780Z,99.90
2023-05-17T20:40:00.186Z,99.90
2023-05-17T20:42:42.698Z,99.90
2023-05-17T20:45:14.740Z,99.90
2023-05-17T20:47:49.178Z,99.90
2023-05-17T20:50:21.684Z,99.90
2023-05-17T20:52:59.611Z,99.90
2023-05-17T20:55:44.647Z,99.90
2023-05-17T20:58:18.939Z,99.90
2023-05-17T21:00:56.680Z,99.90
2023-05-17T21:03:32.937Z,99.90
2023-05-17T21:06:13.659Z,99.90
2023-05-17T21:08:49.886Z,99.90
2023-05-17T21:11:32.375Z,99.90
2023-05-17T21:14:04.117Z,99.90
2023-05-17T21:16:55.311Z,99.90
2023-05-17T21:19:31.001Z,99.90
2023-05-17T21:22:00.089Z,99.90
2023-05-17T21:24:33.864Z,99.90
2023-05-17T21:27:07.630Z,99.90
2023-05-17T21:29:42.262Z,99.90
2023-05-17T21:32:15.251Z,99.90
2023-05-17T21:34:48.529Z,99.90
2023-05-17T21:37:20.661Z,99.90
2023-05-17T21:39:51.093Z,99.90
2023-05-17T21:42:27.250Z,99.90
2023-05-17T21:45:05.788Z,99.90
2023-05-17T21:47:40.673Z,99.90
2023-05-17T21:50:23.159Z,99.90
2023-05-17T21:53:05.248Z,99.90
2023-05-17T21:56:01.470Z,99.90
2023-05-17T21:58:35.985Z,99.90
2023-05-17T22:01:12.226Z,99.90
2023-05-17T22:03:44.531Z,99.90
2023-05-17T22:09:00.063Z,99.90
2023-05-17T22:11:30.931Z,99.90
2023-05-17T22:14:02.679Z,99.90
2023-05-17T22:16:33.208Z,99.90
2023-05-17T22:19:07.956Z,99.90
2023-05-17T22:21:42.383Z,99.90
2023-05-17T22:24:12.504Z,99.90
2023-05-17T22:26:42.783Z,99.90
2023-05-17T22:29:14.780Z,99.90
2023-05-17T22:31:48.853Z,99.90
2023-05-17T22:34:37.211Z,99.90
2023-05-17T22:37:18.108Z,99.90
2023-05-17T22:39:51.723Z,99.90
2023-05-17T22:42:29.793Z,99.90
2023-05-17T22:45:03.676Z,99.90
2023-05-17T22:47:36.866Z,99.90
2023-05-17T22:50:17.362Z,99.90
2023-05-17T22:52:52.355Z,99.90
2023-05-17T22:55:28.846Z,99.90
2023-05-17T22:58:14.993Z,99.90
2023-05-17T23:00:53.461Z,99.90
2023-05-17T23:03:25.621Z,99.90
2023-05-17T23:06:06.476Z,99.90
2023-05-17T23:08:46.103Z,99.90
2023-05-17T23:11:27.872Z,99.90
2023-05-17T23:14:01.217Z,99.90
2023-05-17T23:16:40.556Z,99.90
2023-05-17T23:19:14.913Z,99.90
2023-05-17T23:21:48.131Z,99.90
2023-05-17T23:24:19.025Z,99.90
2023-05-17T23:27:05.331Z,99.90
2023-05-17T23:29:37.799Z,99.90
2023-05-17T23:32:17.472Z,99.90
2023-05-17T23:34:48.322Z,99.90
2023-05-17T23:37:27.341Z,99.90
2023-05-17T23:39:59.555Z,99.90
2023-05-17T23:42:37.455Z,99.90
2023-05-17T23:45:14.021Z,99.90
2023-05-17T23:48:01.878Z,99.90
2023-05-17T23:50:32.498Z,99.90
2023-05-17T23:53:04.926Z,99.90
2023-05-17T23:55:36.920Z,99.90
2023-05-17T23:58:22.009Z,99.90
